Aviation Digital Data Service (ADDS)

Output produced by METARs form (0241 UTC 22 July 2017)
found at http://www.aviationweather.gov/adds/metars/
 
TAF AMD LDSB 211255Z 2112/2212 03008KT CAVOK TX33/2112Z TN21/2203Z 
     TEMPO 2112/2117 20010KT 
     BECMG 2117/2119 VRB02KT
       
LDDU 220230Z 10007KT CAVOK 22/16 Q1014 NOSIG
TAF LDDU 212325Z 2200/2224 08005KT CAVOK TX30/2213Z TN24/2203Z 
     BECMG 2207/2209 16008KT 
     PROB40 2210/2217 29008KT 
     BECMG 2217/2219 08005KT
       
LDOS 220230Z 12004KT CAVOK 18/17 Q1013
TAF LDOS 212325Z 2200/2224 VRB02KT CAVOK TX33/2216Z TN19/2203Z 
     PROB30 
     TEMPO 2207/2211 TS FEW060CB 
     PROB30 
     TEMPO 2213/2216 TS FEW060CB
       
LDPL 220230Z AUTO 10007KT CAVOK 22/18 Q1012 TEMPO SHRA FEW040TCU
TAF LDPL 212325Z 2200/2224 11006KT 9999 SCT040 TX32/2212Z TN20/2203Z 
     TEMPO 2200/2206 11012KT SHRA FEW040TCU SCT045 
     PROB30 
     TEMPO 2200/2206 TSRA FEW040CB SCT045 
     BECMG 2211/2213 24008KT 
     BECMG 2217/2219 VRB02KT
       
LDRI 220230Z 13005KT 9999 FEW050 23/17 Q1013
TAF LDRI 212325Z 2200/2224 VRB02KT CAVOK TX31/2213Z TN21/2203Z 
     PROB40 
     TEMPO 2200/2206 12008KT SHRA FEW040TCU 
     PROB30 
     TEMPO 2200/2206 TSRA FEW040CB SCT045 
     TEMPO 2210/2216 30006KT
       
LDDU 220230Z 10007KT CAVOK 22/16 Q1014 NOSIG
TAF LDDU 212325Z 2200/2224 08005KT CAVOK TX30/2213Z TN24/2203Z 
     BECMG 2207/2209 16008KT 
     PROB40 2210/2217 29008KT 
     BECMG 2217/2219 08005KT
       
TAF LDLO 211125Z 2112/2212 18006KT CAVOK TX31/2113Z TN22/2203Z
       
LDOS 220230Z 12004KT CAVOK 18/17 Q1013
TAF LDOS 212325Z 2200/2224 VRB02KT CAVOK TX33/2216Z TN19/2203Z 
     PROB30 
     TEMPO 2207/2211 TS FEW060CB 
     PROB30 
     TEMPO 2213/2216 TS FEW060CB
       
LDPL 220230Z AUTO 10007KT CAVOK 22/18 Q1012 TEMPO SHRA FEW040TCU
TAF LDPL 212325Z 2200/2224 11006KT 9999 SCT040 TX32/2212Z TN20/2203Z 
     TEMPO 2200/2206 11012KT SHRA FEW040TCU SCT045 
     PROB30 
     TEMPO 2200/2206 TSRA FEW040CB SCT045 
     BECMG 2211/2213 24008KT 
     BECMG 2217/2219 VRB02KT
       
LDRI 220230Z 13005KT 9999 FEW050 23/17 Q1013
TAF LDRI 212325Z 2200/2224 VRB02KT CAVOK TX31/2213Z TN21/2203Z 
     PROB40 
     TEMPO 2200/2206 12008KT SHRA FEW040TCU 
     PROB30 
     TEMPO 2200/2206 TSRA FEW040CB SCT045 
     TEMPO 2210/2216 30006KT
       
TAF AMD LDSB 211255Z 2112/2212 03008KT CAVOK TX33/2112Z TN21/2203Z 
     TEMPO 2112/2117 20010KT 
     BECMG 2117/2119 VRB02KT
       
LDSP 220230Z AUTO VRB02KT CAVOK 24/15 Q1012 NOSIG
TAF LDSP 212325Z 2200/2224 VRB02KT CAVOK TX32/2213Z TN24/2203Z 
     BECMG 2209/2211 23008KT 
     BECMG 2216/2218 VRB02KT
       
LDZA 220230Z VRB01KT CAVOK 21/17 Q1013 TEMPO SHRA FEW045TCU
TAF LDZA 212325Z 2200/2224 VRB02KT CAVOK TX34/2213Z TN21/2202Z 
     PROB40 
     TEMPO 2200/2207 SHRA FEW045TCU 
     PROB30 
     TEMPO 2202/2207 TSRA FEW045CB SCT045 
     TEMPO 2207/2217 23008KT 
     PROB30 
     TEMPO 2213/2216 TS FEW050CB 
     PROB40 
     TEMPO 2217/2224 25008KT
       
LDZD 220230Z 28006KT 250V360 9999 FEW050 23/15 Q1013 TEMPO SHRA FEW040TCU SCT045
TAF LDZD 212325Z 2200/2224 13006KT CAVOK TX34/2212Z TN20/2203Z 
     PROB30 
     TEMPO 2200/2206 SHRA FEW040TCU SCT045 
     BECMG 2208/2210 22006KT 
     BECMG 2211/2213 30010KT 
     BECMG 2217/2219 VRB02KT
       
LDSP 220230Z AUTO VRB02KT CAVOK 24/15 Q1012 NOSIG
TAF LDSP 212325Z 2200/2224 VRB02KT CAVOK TX32/2213Z TN24/2203Z 
     BECMG 2209/2211 23008KT 
     BECMG 2216/2218 VRB02KT
       
LDZD 220230Z 28006KT 250V360 9999 FEW050 23/15 Q1013 TEMPO SHRA FEW040TCU SCT045
TAF LDZD 212325Z 2200/2224 13006KT CAVOK TX34/2212Z TN20/2203Z 
     PROB30 
     TEMPO 2200/2206 SHRA FEW040TCU SCT045 
     BECMG 2208/2210 22006KT 
     BECMG 2211/2213 30010KT 
     BECMG 2217/2219 VRB02KT
       
LDZA 220230Z VRB01KT CAVOK 21/17 Q1013 TEMPO SHRA FEW045TCU
TAF LDZA 212325Z 2200/2224 VRB02KT CAVOK TX34/2213Z TN21/2202Z 
     PROB40 
     TEMPO 2200/2207 SHRA FEW045TCU 
     PROB30 
     TEMPO 2202/2207 TSRA FEW045CB SCT045 
     TEMPO 2207/2217 23008KT 
     PROB30 
     TEMPO 2213/2216 TS FEW050CB 
     PROB40 
     TEMPO 2217/2224 25008KT